sensor_id;sensor_type;location;lat;lon;timestamp;P1;durP1;ratioP1;P2;durP2;ratioP2
82417;SDS011;75985;53.734;10.260;2024-03-02T00:01:23;18.60;;;13.25;;
82417;SDS011;75985;53.734;10.260;2024-03-02T00:04:28;17.80;;;13.22;;
82417;SDS011;75985;53.734;10.260;2024-03-02T00:07:33;19.90;;;13.72;;
82417;SDS011;75985;53.734;10.260;2024-03-02T00:10:38;14.95;;;11.50;;
82417;SDS011;75985;53.734;10.260;2024-03-02T00:13:44;18.92;;;13.53;;
82417;SDS011;75985;53.734;10.260;2024-03-02T00:16:49;19.05;;;13.43;;
82417;SDS011;75985;53.734;10.260;2024-03-02T00:19:55;18.02;;;13.22;;
82417;SDS011;75985;53.734;10.260;2024-03-02T00:23:02;17.52;;;13.05;;
82417;SDS011;75985;53.734;10.260;2024-03-02T00:26:07;18.23;;;13.75;;
82417;SDS011;75985;53.734;10.260;2024-03-02T00:29:15;18.70;;;13.08;;
82417;SDS011;75985;53.734;10.260;2024-03-02T00:32:22;20.57;;;14.05;;
82417;SDS011;75985;53.734;10.260;2024-03-02T00:35:28;23.60;;;15.58;;
82417;SDS011;75985;53.734;10.260;2024-03-02T00:38:33;25.40;;;17.60;;
82417;SDS011;75985;53.734;10.260;2024-03-02T00:41:38;22.75;;;16.50;;
82417;SDS011;75985;53.734;10.260;2024-03-02T00:44:48;24.45;;;16.80;;
82417;SDS011;75985;53.734;10.260;2024-03-02T00:47:52;31.45;;;19.73;;
82417;SDS011;75985;53.734;10.260;2024-03-02T00:50:57;25.55;;;17.00;;
82417;SDS011;75985;53.734;10.260;2024-03-02T00:54:03;22.30;;;15.08;;
82417;SDS011;75985;53.734;10.260;2024-03-02T00:57:10;21.65;;;15.20;;
82417;SDS011;75985;53.734;10.260;2024-03-02T01:00:15;21.20;;;14.10;;
82417;SDS011;75985;53.734;10.260;2024-03-02T01:03:20;23.47;;;15.15;;
82417;SDS011;75985;53.734;10.260;2024-03-02T01:06:25;25.00;;;15.40;;
82417;SDS011;75985;53.734;10.260;2024-03-02T01:09:29;25.30;;;15.75;;
82417;SDS011;75985;53.734;10.260;2024-03-02T01:12:34;31.80;;;19.17;;
82417;SDS011;75985;53.734;10.260;2024-03-02T01:15:38;30.45;;;20.48;;
82417;SDS011;75985;53.734;10.260;2024-03-02T01:18:43;33.23;;;21.65;;
82417;SDS011;75985;53.734;10.260;2024-03-02T01:21:48;31.73;;;20.23;;
82417;SDS011;75985;53.734;10.260;2024-03-02T01:24:53;31.10;;;19.37;;
82417;SDS011;75985;53.734;10.260;2024-03-02T01:27:58;28.57;;;17.65;;
82417;SDS011;75985;53.734;10.260;2024-03-02T01:31:02;31.40;;;19.85;;
82417;SDS011;75985;53.734;10.260;2024-03-02T01:34:07;30.95;;;19.75;;
82417;SDS011;75985;53.734;10.260;2024-03-02T01:37:12;31.93;;;19.75;;
82417;SDS011;75985;53.734;10.260;2024-03-02T01:40:16;28.42;;;18.30;;
82417;SDS011;75985;53.734;10.260;2024-03-02T01:43:21;29.63;;;17.62;;
82417;SDS011;75985;53.734;10.260;2024-03-02T01:46:26;25.50;;;17.10;;
82417;SDS011;75985;53.734;10.260;2024-03-02T01:49:30;27.87;;;17.37;;
82417;SDS011;75985;53.734;10.260;2024-03-02T01:52:36;28.77;;;18.30;;
82417;SDS011;75985;53.734;10.260;2024-03-02T01:55:41;29.77;;;17.25;;
82417;SDS011;75985;53.734;10.260;2024-03-02T01:58:46;34.85;;;19.82;;
82417;SDS011;75985;53.734;10.260;2024-03-02T02:01:50;39.05;;;22.62;;
82417;SDS011;75985;53.734;10.260;2024-03-02T02:04:55;37.48;;;21.68;;
82417;SDS011;75985;53.734;10.260;2024-03-02T02:08:00;38.35;;;22.22;;
82417;SDS011;75985;53.734;10.260;2024-03-02T02:11:05;29.25;;;18.17;;
82417;SDS011;75985;53.734;10.260;2024-03-02T02:14:10;29.20;;;18.27;;
82417;SDS011;75985;53.734;10.260;2024-03-02T02:17:15;27.98;;;16.77;;
82417;SDS011;75985;53.734;10.260;2024-03-02T02:20:20;26.50;;;16.65;;
82417;SDS011;75985;53.734;10.260;2024-03-02T02:23:26;31.62;;;18.07;;
82417;SDS011;75985;53.734;10.260;2024-03-02T02:26:30;30.68;;;17.95;;
82417;SDS011;75985;53.734;10.260;2024-03-02T02:29:35;27.25;;;16.65;;
82417;SDS011;75985;53.734;10.260;2024-03-02T02:32:39;31.17;;;20.05;;
82417;SDS011;75985;53.734;10.260;2024-03-02T02:35:44;32.90;;;19.55;;
82417;SDS011;75985;53.734;10.260;2024-03-02T02:38:48;31.00;;;18.17;;
82417;SDS011;75985;53.734;10.260;2024-03-02T02:41:53;31.68;;;18.67;;
82417;SDS011;75985;53.734;10.260;2024-03-02T02:44:58;35.78;;;21.35;;
82417;SDS011;75985;53.734;10.260;2024-03-02T02:48:02;32.65;;;20.25;;
82417;SDS011;75985;53.734;10.260;2024-03-02T02:51:08;36.50;;;19.77;;
82417;SDS011;75985;53.734;10.260;2024-03-02T02:54:12;34.70;;;19.62;;
82417;SDS011;75985;53.734;10.260;2024-03-02T02:57:17;31.50;;;19.00;;
82417;SDS011;75985;53.734;10.260;2024-03-02T03:00:21;27.45;;;17.27;;
82417;SDS011;75985;53.734;10.260;2024-03-02T03:03:26;25.65;;;16.73;;
82417;SDS011;75985;53.734;10.260;2024-03-02T03:06:30;24.35;;;16.40;;
82417;SDS011;75985;53.734;10.260;2024-03-02T03:09:36;28.55;;;16.73;;
82417;SDS011;75985;53.734;10.260;2024-03-02T03:12:44;27.32;;;17.52;;
82417;SDS011;75985;53.734;10.260;2024-03-02T03:15:49;30.82;;;18.17;;
82417;SDS011;75985;53.734;10.260;2024-03-02T03:18:53;31.40;;;18.00;;
82417;SDS011;75985;53.734;10.260;2024-03-02T03:21:58;30.45;;;17.77;;
82417;SDS011;75985;53.734;10.260;2024-03-02T03:25:03;28.83;;;17.23;;
82417;SDS011;75985;53.734;10.260;2024-03-02T03:28:08;29.82;;;18.67;;
82417;SDS011;75985;53.734;10.260;2024-03-02T03:31:15;31.20;;;18.80;;
82417;SDS011;75985;53.734;10.260;2024-03-02T03:34:19;32.15;;;18.27;;
82417;SDS011;75985;53.734;10.260;2024-03-02T03:37:24;32.13;;;18.60;;
82417;SDS011;75985;53.734;10.260;2024-03-02T03:40:30;32.15;;;18.40;;
82417;SDS011;75985;53.734;10.260;2024-03-02T03:43:35;27.45;;;16.32;;
82417;SDS011;75985;53.734;10.260;2024-03-02T03:46:40;23.85;;;14.85;;
82417;SDS011;75985;53.734;10.260;2024-03-02T03:49:44;23.40;;;14.68;;
82417;SDS011;75985;53.734;10.260;2024-03-02T03:52:49;21.40;;;14.80;;
82417;SDS011;75985;53.734;10.260;2024-03-02T03:55:54;27.58;;;17.27;;
82417;SDS011;75985;53.734;10.260;2024-03-02T03:58:58;27.50;;;16.40;;
82417;SDS011;75985;53.734;10.260;2024-03-02T04:02:03;26.02;;;15.78;;
82417;SDS011;75985;53.734;10.260;2024-03-02T04:05:08;24.23;;;15.65;;
82417;SDS011;75985;53.734;10.260;2024-03-02T04:08:13;25.72;;;15.58;;
82417;SDS011;75985;53.734;10.260;2024-03-02T04:11:17;27.30;;;15.43;;
82417;SDS011;75985;53.734;10.260;2024-03-02T04:14:22;27.60;;;15.78;;
82417;SDS011;75985;53.734;10.260;2024-03-02T04:17:26;25.70;;;16.05;;
82417;SDS011;75985;53.734;10.260;2024-03-02T04:20:32;34.55;;;20.10;;
82417;SDS011;75985;53.734;10.260;2024-03-02T04:23:37;34.13;;;20.97;;
82417;SDS011;75985;53.734;10.260;2024-03-02T04:26:42;43.48;;;24.35;;
82417;SDS011;75985;53.734;10.260;2024-03-02T04:29:46;41.20;;;23.42;;
82417;SDS011;75985;53.734;10.260;2024-03-02T04:32:51;39.90;;;24.05;;
82417;SDS011;75985;53.734;10.260;2024-03-02T04:35:55;38.83;;;23.32;;
82417;SDS011;75985;53.734;10.260;2024-03-02T04:39:00;40.43;;;22.95;;
82417;SDS011;75985;53.734;10.260;2024-03-02T04:42:04;36.17;;;21.02;;
82417;SDS011;75985;53.734;10.260;2024-03-02T04:45:09;38.28;;;22.20;;
82417;SDS011;75985;53.734;10.260;2024-03-02T04:48:13;30.30;;;19.80;;
82417;SDS011;75985;53.734;10.260;2024-03-02T04:51:18;30.70;;;19.07;;
82417;SDS011;75985;53.734;10.260;2024-03-02T04:54:22;29.72;;;20.10;;
82417;SDS011;75985;53.734;10.260;2024-03-02T04:57:27;30.02;;;19.42;;
82417;SDS011;75985;53.734;10.260;2024-03-02T05:00:32;32.83;;;20.72;;
82417;SDS011;75985;53.734;10.260;2024-03-02T05:03:37;26.80;;;17.75;;
82417;SDS011;75985;53.734;10.260;2024-03-02T05:06:42;28.25;;;17.70;;
82417;SDS011;75985;53.734;10.260;2024-03-02T05:09:46;28.10;;;17.48;;
82417;SDS011;75985;53.734;10.260;2024-03-02T05:12:51;27.87;;;17.35;;
82417;SDS011;75985;53.734;10.260;2024-03-02T05:15:59;29.42;;;18.90;;
82417;SDS011;75985;53.734;10.260;2024-03-02T05:19:04;26.55;;;17.20;;
82417;SDS011;75985;53.734;10.260;2024-03-02T05:22:10;27.07;;;17.40;;
82417;SDS011;75985;53.734;10.260;2024-03-02T05:25:15;32.03;;;18.35;;
82417;SDS011;75985;53.734;10.260;2024-03-02T05:28:19;28.00;;;17.95;;
82417;SDS011;75985;53.734;10.260;2024-03-02T05:31:24;26.33;;;17.20;;
82417;SDS011;75985;53.734;10.260;2024-03-02T05:34:28;25.90;;;16.73;;
82417;SDS011;75985;53.734;10.260;2024-03-02T05:37:33;24.90;;;16.62;;
82417;SDS011;75985;53.734;10.260;2024-03-02T05:40:37;26.90;;;16.80;;
82417;SDS011;75985;53.734;10.260;2024-03-02T05:43:42;31.62;;;20.70;;
82417;SDS011;75985;53.734;10.260;2024-03-02T05:46:46;32.80;;;18.85;;
82417;SDS011;75985;53.734;10.260;2024-03-02T05:49:51;36.85;;;23.52;;
82417;SDS011;75985;53.734;10.260;2024-03-02T05:52:55;34.53;;;21.77;;
82417;SDS011;75985;53.734;10.260;2024-03-02T05:56:01;40.17;;;22.93;;
82417;SDS011;75985;53.734;10.260;2024-03-02T05:59:07;33.53;;;20.70;;
82417;SDS011;75985;53.734;10.260;2024-03-02T06:02:18;26.97;;;18.48;;
82417;SDS011;75985;53.734;10.260;2024-03-02T06:05:23;27.07;;;18.20;;
82417;SDS011;75985;53.734;10.260;2024-03-02T06:08:28;29.23;;;17.42;;
82417;SDS011;75985;53.734;10.260;2024-03-02T06:11:33;26.82;;;17.48;;
82417;SDS011;75985;53.734;10.260;2024-03-02T06:14:39;30.02;;;18.17;;
82417;SDS011;75985;53.734;10.260;2024-03-02T06:17:43;33.05;;;20.32;;
82417;SDS011;75985;53.734;10.260;2024-03-02T06:20:48;38.45;;;22.87;;
82417;SDS011;75985;53.734;10.260;2024-03-02T06:23:52;34.75;;;22.15;;
82417;SDS011;75985;53.734;10.260;2024-03-02T06:26:57;39.63;;;24.18;;
82417;SDS011;75985;53.734;10.260;2024-03-02T06:30:02;41.83;;;25.52;;
82417;SDS011;75985;53.734;10.260;2024-03-02T06:33:06;44.48;;;26.68;;
82417;SDS011;75985;53.734;10.260;2024-03-02T06:36:11;42.13;;;25.80;;
82417;SDS011;75985;53.734;10.260;2024-03-02T06:39:15;37.17;;;23.50;;
82417;SDS011;75985;53.734;10.260;2024-03-02T06:42:20;34.48;;;21.65;;
82417;SDS011;75985;53.734;10.260;2024-03-02T06:45:24;35.30;;;22.20;;
82417;SDS011;75985;53.734;10.260;2024-03-02T06:48:29;35.28;;;22.82;;
82417;SDS011;75985;53.734;10.260;2024-03-02T06:51:34;39.00;;;24.52;;
82417;SDS011;75985;53.734;10.260;2024-03-02T06:54:38;36.63;;;22.22;;
82417;SDS011;75985;53.734;10.260;2024-03-02T06:57:43;30.25;;;20.85;;
82417;SDS011;75985;53.734;10.260;2024-03-02T07:00:47;28.05;;;19.17;;
82417;SDS011;75985;53.734;10.260;2024-03-02T07:03:52;27.13;;;18.45;;
82417;SDS011;75985;53.734;10.260;2024-03-02T07:06:56;30.52;;;19.27;;
82417;SDS011;75985;53.734;10.260;2024-03-02T07:10:01;29.90;;;19.20;;
82417;SDS011;75985;53.734;10.260;2024-03-02T07:13:07;29.63;;;18.80;;
82417;SDS011;75985;53.734;10.260;2024-03-02T07:16:11;30.80;;;20.72;;
82417;SDS011;75985;53.734;10.260;2024-03-02T07:19:26;32.45;;;21.97;;
82417;SDS011;75985;53.734;10.260;2024-03-02T07:22:31;31.77;;;21.27;;
82417;SDS011;75985;53.734;10.260;2024-03-02T07:25:36;32.45;;;21.68;;
82417;SDS011;75985;53.734;10.260;2024-03-02T07:28:41;28.92;;;20.17;;
82417;SDS011;75985;53.734;10.260;2024-03-02T07:31:46;34.92;;;21.35;;
82417;SDS011;75985;53.734;10.260;2024-03-02T07:34:51;32.13;;;21.48;;
82417;SDS011;75985;53.734;10.260;2024-03-02T07:37:55;31.52;;;23.10;;
82417;SDS011;75985;53.734;10.260;2024-03-02T07:41:00;32.85;;;22.80;;
82417;SDS011;75985;53.734;10.260;2024-03-02T07:44:05;34.05;;;22.27;;
82417;SDS011;75985;53.734;10.260;2024-03-02T07:47:09;37.28;;;24.50;;
82417;SDS011;75985;53.734;10.260;2024-03-02T07:50:14;39.55;;;25.85;;
82417;SDS011;75985;53.734;10.260;2024-03-02T07:53:19;34.27;;;23.30;;
82417;SDS011;75985;53.734;10.260;2024-03-02T07:56:23;32.35;;;21.37;;
82417;SDS011;75985;53.734;10.260;2024-03-02T07:59:28;28.95;;;20.65;;
82417;SDS011;75985;53.734;10.260;2024-03-02T08:02:32;27.65;;;20.27;;
82417;SDS011;75985;53.734;10.260;2024-03-02T08:05:38;25.12;;;18.48;;
82417;SDS011;75985;53.734;10.260;2024-03-02T08:08:43;24.87;;;17.82;;
82417;SDS011;75985;53.734;10.260;2024-03-02T08:11:47;25.20;;;18.95;;
82417;SDS011;75985;53.734;10.260;2024-03-02T08:14:52;24.15;;;17.70;;
82417;SDS011;75985;53.734;10.260;2024-03-02T08:17:56;22.02;;;15.85;;
82417;SDS011;75985;53.734;10.260;2024-03-02T08:21:01;19.90;;;14.55;;
82417;SDS011;75985;53.734;10.260;2024-03-02T08:24:05;20.92;;;15.48;;
82417;SDS011;75985;53.734;10.260;2024-03-02T08:27:11;22.90;;;17.07;;
82417;SDS011;75985;53.734;10.260;2024-03-02T08:30:15;23.65;;;17.48;;
82417;SDS011;75985;53.734;10.260;2024-03-02T08:33:20;23.45;;;17.32;;
82417;SDS011;75985;53.734;10.260;2024-03-02T08:36:25;19.65;;;15.78;;
82417;SDS011;75985;53.734;10.260;2024-03-02T08:39:29;19.15;;;15.05;;
82417;SDS011;75985;53.734;10.260;2024-03-02T08:42:34;21.62;;;15.75;;
82417;SDS011;75985;53.734;10.260;2024-03-02T08:45:39;20.43;;;15.23;;
82417;SDS011;75985;53.734;10.260;2024-03-02T08:48:44;18.82;;;13.53;;
82417;SDS011;75985;53.734;10.260;2024-03-02T08:51:48;18.57;;;13.10;;
82417;SDS011;75985;53.734;10.260;2024-03-02T08:54:55;16.97;;;13.53;;
82417;SDS011;75985;53.734;10.260;2024-03-02T08:57:59;19.37;;;13.78;;
82417;SDS011;75985;53.734;10.260;2024-03-02T09:01:04;18.12;;;13.78;;
82417;SDS011;75985;53.734;10.260;2024-03-02T09:04:10;18.45;;;14.15;;
82417;SDS011;75985;53.734;10.260;2024-03-02T09:07:14;16.27;;;13.45;;
82417;SDS011;75985;53.734;10.260;2024-03-02T09:10:19;19.62;;;15.05;;
82417;SDS011;75985;53.734;10.260;2024-03-02T09:13:24;20.43;;;14.55;;
82417;SDS011;75985;53.734;10.260;2024-03-02T09:16:28;15.28;;;12.37;;
82417;SDS011;75985;53.734;10.260;2024-03-02T09:19:33;17.82;;;13.43;;
82417;SDS011;75985;53.734;10.260;2024-03-02T09:22:38;16.12;;;12.95;;
82417;SDS011;75985;53.734;10.260;2024-03-02T09:25:44;15.50;;;13.15;;
82417;SDS011;75985;53.734;10.260;2024-03-02T09:28:48;18.15;;;12.43;;
82417;SDS011;75985;53.734;10.260;2024-03-02T09:31:53;18.75;;;14.65;;
82417;SDS011;75985;53.734;10.260;2024-03-02T09:34:58;15.95;;;13.85;;
82417;SDS011;75985;53.734;10.260;2024-03-02T09:38:03;15.72;;;12.95;;
82417;SDS011;75985;53.734;10.260;2024-03-02T09:41:07;15.18;;;11.93;;
82417;SDS011;75985;53.734;10.260;2024-03-02T09:44:12;15.05;;;11.05;;
82417;SDS011;75985;53.734;10.260;2024-03-02T09:47:16;13.50;;;10.48;;
82417;SDS011;75985;53.734;10.260;2024-03-02T09:50:21;15.25;;;12.53;;
82417;SDS011;75985;53.734;10.260;2024-03-02T09:53:26;12.95;;;11.18;;
82417;SDS011;75985;53.734;10.260;2024-03-02T09:56:33;13.00;;;10.58;;
82417;SDS011;75985;53.734;10.260;2024-03-02T09:59:38;13.25;;;10.78;;
82417;SDS011;75985;53.734;10.260;2024-03-02T10:02:43;13.08;;;10.28;;
82417;SDS011;75985;53.734;10.260;2024-03-02T10:05:49;14.68;;;10.65;;
82417;SDS011;75985;53.734;10.260;2024-03-02T10:08:54;11.68;;;10.38;;
82417;SDS011;75985;53.734;10.260;2024-03-02T10:12:05;11.43;;;10.10;;
82417;SDS011;75985;53.734;10.260;2024-03-02T10:15:11;10.32;;;8.50;;
82417;SDS011;75985;53.734;10.260;2024-03-02T10:18:16;9.65;;;8.35;;
82417;SDS011;75985;53.734;10.260;2024-03-02T10:21:23;9.50;;;8.08;;
82417;SDS011;75985;53.734;10.260;2024-03-02T10:24:28;9.20;;;7.97;;
82417;SDS011;75985;53.734;10.260;2024-03-02T10:27:41;8.60;;;7.60;;
82417;SDS011;75985;53.734;10.260;2024-03-02T10:30:47;10.35;;;8.25;;
82417;SDS011;75985;53.734;10.260;2024-03-02T10:33:55;9.98;;;7.70;;
82417;SDS011;75985;53.734;10.260;2024-03-02T10:37:00;10.08;;;8.33;;
82417;SDS011;75985;53.734;10.260;2024-03-02T10:40:05;7.97;;;6.87;;
82417;SDS011;75985;53.734;10.260;2024-03-02T10:43:10;7.67;;;6.42;;
82417;SDS011;75985;53.734;10.260;2024-03-02T10:46:16;9.98;;;7.10;;
82417;SDS011;75985;53.734;10.260;2024-03-02T10:49:23;10.20;;;9.03;;
82417;SDS011;75985;53.734;10.260;2024-03-02T10:52:30;11.75;;;9.05;;
82417;SDS011;75985;53.734;10.260;2024-03-02T10:55:35;14.90;;;10.53;;
82417;SDS011;75985;53.734;10.260;2024-03-02T10:58:39;13.38;;;10.70;;
82417;SDS011;75985;53.734;10.260;2024-03-02T11:01:44;11.05;;;9.35;;
82417;SDS011;75985;53.734;10.260;2024-03-02T11:04:51;15.55;;;10.63;;
82417;SDS011;75985;53.734;10.260;2024-03-02T11:08:08;13.10;;;10.20;;
82417;SDS011;75985;53.734;10.260;2024-03-02T11:11:18;17.27;;;11.60;;
82417;SDS011;75985;53.734;10.260;2024-03-02T11:14:25;13.03;;;9.95;;
82417;SDS011;75985;53.734;10.260;2024-03-02T11:17:29;12.70;;;10.43;;
82417;SDS011;75985;53.734;10.260;2024-03-02T11:20:37;12.93;;;10.78;;
82417;SDS011;75985;53.734;10.260;2024-03-02T11:23:43;13.68;;;11.05;;
82417;SDS011;75985;53.734;10.260;2024-03-02T11:26:48;12.85;;;11.05;;
82417;SDS011;75985;53.734;10.260;2024-03-02T11:29:54;16.50;;;12.73;;
82417;SDS011;75985;53.734;10.260;2024-03-02T11:32:59;14.55;;;11.53;;
82417;SDS011;75985;53.734;10.260;2024-03-02T11:36:11;13.22;;;10.50;;
82417;SDS011;75985;53.734;10.260;2024-03-02T11:39:15;16.48;;;11.73;;
82417;SDS011;75985;53.734;10.260;2024-03-02T11:42:20;12.37;;;10.28;;
82417;SDS011;75985;53.734;10.260;2024-03-02T11:45:24;10.93;;;9.78;;
82417;SDS011;75985;53.734;10.260;2024-03-02T11:48:30;11.70;;;10.05;;
82417;SDS011;75985;53.734;10.260;2024-03-02T11:51:35;12.43;;;10.10;;
82417;SDS011;75985;53.734;10.260;2024-03-02T11:54:42;10.48;;;9.35;;
82417;SDS011;75985;53.734;10.260;2024-03-02T11:57:52;11.30;;;9.58;;
82417;SDS011;75985;53.734;10.260;2024-03-02T12:00:57;12.98;;;10.03;;
82417;SDS011;75985;53.734;10.260;2024-03-02T12:04:01;9.25;;;8.23;;
82417;SDS011;75985;53.734;10.260;2024-03-02T12:07:06;10.45;;;8.58;;
82417;SDS011;75985;53.734;10.260;2024-03-02T12:10:11;10.40;;;8.70;;
82417;SDS011;75985;53.734;10.260;2024-03-02T12:13:16;12.70;;;9.98;;
82417;SDS011;75985;53.734;10.260;2024-03-02T12:16:24;10.78;;;8.88;;
82417;SDS011;75985;53.734;10.260;2024-03-02T12:19:29;10.13;;;8.83;;
82417;SDS011;75985;53.734;10.260;2024-03-02T12:22:34;8.83;;;7.72;;
82417;SDS011;75985;53.734;10.260;2024-03-02T12:25:38;10.78;;;9.25;;
82417;SDS011;75985;53.734;10.260;2024-03-02T12:28:43;8.08;;;6.80;;
82417;SDS011;75985;53.734;10.260;2024-03-02T12:31:48;10.13;;;7.97;;
82417;SDS011;75985;53.734;10.260;2024-03-02T12:34:53;12.23;;;9.60;;
82417;SDS011;75985;53.734;10.260;2024-03-02T12:37:59;12.78;;;10.10;;
82417;SDS011;75985;53.734;10.260;2024-03-02T12:41:03;11.22;;;9.15;;
82417;SDS011;75985;53.734;10.260;2024-03-02T12:44:08;12.25;;;8.95;;
82417;SDS011;75985;53.734;10.260;2024-03-02T12:47:12;11.78;;;9.23;;
82417;SDS011;75985;53.734;10.260;2024-03-02T12:50:17;11.68;;;9.68;;
82417;SDS011;75985;53.734;10.260;2024-03-02T12:53:22;9.40;;;7.37;;
82417;SDS011;75985;53.734;10.260;2024-03-02T12:56:27;11.20;;;8.53;;
82417;SDS011;75985;53.734;10.260;2024-03-02T12:59:32;8.13;;;7.28;;
82417;SDS011;75985;53.734;10.260;2024-03-02T13:02:36;8.20;;;7.03;;
82417;SDS011;75985;53.734;10.260;2024-03-02T13:05:42;8.05;;;6.65;;
82417;SDS011;75985;53.734;10.260;2024-03-02T13:08:50;7.92;;;7.12;;
82417;SDS011;75985;53.734;10.260;2024-03-02T13:11:54;9.48;;;7.58;;
82417;SDS011;75985;53.734;10.260;2024-03-02T13:14:59;9.43;;;7.20;;
82417;SDS011;75985;53.734;10.260;2024-03-02T13:18:05;7.70;;;6.00;;
82417;SDS011;75985;53.734;10.260;2024-03-02T13:21:11;6.55;;;5.87;;
82417;SDS011;75985;53.734;10.260;2024-03-02T13:24:16;7.42;;;6.62;;
82417;SDS011;75985;53.734;10.260;2024-03-02T13:27:22;7.30;;;5.72;;
82417;SDS011;75985;53.734;10.260;2024-03-02T13:30:27;10.05;;;8.50;;
82417;SDS011;75985;53.734;10.260;2024-03-02T13:33:32;9.60;;;8.18;;
82417;SDS011;75985;53.734;10.260;2024-03-02T13:36:36;9.95;;;8.20;;
82417;SDS011;75985;53.734;10.260;2024-03-02T13:39:41;9.60;;;7.65;;
82417;SDS011;75985;53.734;10.260;2024-03-02T13:42:46;8.50;;;7.17;;
82417;SDS011;75985;53.734;10.260;2024-03-02T13:45:50;9.50;;;7.95;;
82417;SDS011;75985;53.734;10.260;2024-03-02T13:48:55;7.28;;;6.58;;
82417;SDS011;75985;53.734;10.260;2024-03-02T13:52:02;7.65;;;6.10;;
82417;SDS011;75985;53.734;10.260;2024-03-02T13:55:09;8.13;;;6.70;;
82417;SDS011;75985;53.734;10.260;2024-03-02T13:58:13;7.45;;;6.60;;
82417;SDS011;75985;53.734;10.260;2024-03-02T14:01:18;8.55;;;7.37;;
82417;SDS011;75985;53.734;10.260;2024-03-02T14:04:22;8.18;;;6.40;;
82417;SDS011;75985;53.734;10.260;2024-03-02T14:07:27;9.48;;;7.12;;
82417;SDS011;75985;53.734;10.260;2024-03-02T14:10:31;7.53;;;6.47;;
82417;SDS011;75985;53.734;10.260;2024-03-02T14:13:36;7.42;;;6.62;;
82417;SDS011;75985;53.734;10.260;2024-03-02T14:16:40;6.92;;;5.90;;
82417;SDS011;75985;53.734;10.260;2024-03-02T14:19:45;6.62;;;5.45;;
82417;SDS011;75985;53.734;10.260;2024-03-02T14:22:50;5.28;;;4.45;;
82417;SDS011;75985;53.734;10.260;2024-03-02T14:25:55;7.90;;;6.10;;
82417;SDS011;75985;53.734;10.260;2024-03-02T14:29:02;6.45;;;5.42;;
82417;SDS011;75985;53.734;10.260;2024-03-02T14:32:06;7.12;;;6.00;;
82417;SDS011;75985;53.734;10.260;2024-03-02T14:35:11;6.08;;;5.47;;
82417;SDS011;75985;53.734;10.260;2024-03-02T14:38:15;7.58;;;6.22;;
82417;SDS011;75985;53.734;10.260;2024-03-02T14:41:20;7.25;;;6.55;;
82417;SDS011;75985;53.734;10.260;2024-03-02T14:44:26;8.00;;;7.20;;
82417;SDS011;75985;53.734;10.260;2024-03-02T14:47:37;8.98;;;7.30;;
82417;SDS011;75985;53.734;10.260;2024-03-02T14:50:37;7.85;;;6.55;;
82417;SDS011;75985;53.734;10.260;2024-03-02T14:53:42;11.08;;;8.90;;
82417;SDS011;75985;53.734;10.260;2024-03-02T14:56:46;9.65;;;7.47;;
82417;SDS011;75985;53.734;10.260;2024-03-02T14:59:51;10.15;;;7.90;;
82417;SDS011;75985;53.734;10.260;2024-03-02T15:02:57;8.88;;;7.30;;
82417;SDS011;75985;53.734;10.260;2024-03-02T15:06:01;11.30;;;8.35;;
82417;SDS011;75985;53.734;10.260;2024-03-02T15:09:06;8.53;;;7.28;;
82417;SDS011;75985;53.734;10.260;2024-03-02T15:12:11;8.83;;;7.53;;
82417;SDS011;75985;53.734;10.260;2024-03-02T15:15:16;8.13;;;7.30;;
82417;SDS011;75985;53.734;10.260;2024-03-02T15:18:21;10.63;;;7.75;;
82417;SDS011;75985;53.734;10.260;2024-03-02T15:21:26;9.18;;;8.03;;
82417;SDS011;75985;53.734;10.260;2024-03-02T15:24:31;8.90;;;7.50;;
82417;SDS011;75985;53.734;10.260;2024-03-02T15:27:35;8.70;;;7.50;;
82417;SDS011;75985;53.734;10.260;2024-03-02T15:30:40;9.10;;;7.50;;
82417;SDS011;75985;53.734;10.260;2024-03-02T15:33:44;9.70;;;7.87;;
82417;SDS011;75985;53.734;10.260;2024-03-02T15:36:49;8.98;;;6.35;;
82417;SDS011;75985;53.734;10.260;2024-03-02T15:39:53;9.60;;;7.55;;
82417;SDS011;75985;53.734;10.260;2024-03-02T15:42:58;6.87;;;6.17;;
82417;SDS011;75985;53.734;10.260;2024-03-02T15:46:02;7.35;;;5.83;;
82417;SDS011;75985;53.734;10.260;2024-03-02T15:49:07;7.53;;;6.08;;
82417;SDS011;75985;53.734;10.260;2024-03-02T15:52:11;7.92;;;6.95;;
82417;SDS011;75985;53.734;10.260;2024-03-02T15:55:17;9.63;;;6.80;;
82417;SDS011;75985;53.734;10.260;2024-03-02T15:58:22;9.63;;;6.58;;
82417;SDS011;75985;53.734;10.260;2024-03-02T16:01:26;8.78;;;6.40;;
82417;SDS011;75985;53.734;10.260;2024-03-02T16:04:31;7.60;;;5.95;;
82417;SDS011;75985;53.734;10.260;2024-03-02T16:07:36;6.40;;;5.33;;
82417;SDS011;75985;53.734;10.260;2024-03-02T16:10:40;7.12;;;5.75;;
82417;SDS011;75985;53.734;10.260;2024-03-02T16:13:45;6.28;;;5.53;;
82417;SDS011;75985;53.734;10.260;2024-03-02T16:16:49;5.97;;;5.25;;
82417;SDS011;75985;53.734;10.260;2024-03-02T16:19:54;5.70;;;4.72;;
82417;SDS011;75985;53.734;10.260;2024-03-02T16:23:00;7.90;;;6.40;;
82417;SDS011;75985;53.734;10.260;2024-03-02T16:26:05;7.35;;;6.55;;
82417;SDS011;75985;53.734;10.260;2024-03-02T16:29:09;6.35;;;5.53;;
82417;SDS011;75985;53.734;10.260;2024-03-02T16:32:14;8.58;;;5.72;;
82417;SDS011;75985;53.734;10.260;2024-03-02T16:35:18;6.10;;;5.28;;
82417;SDS011;75985;53.734;10.260;2024-03-02T16:38:23;7.45;;;5.80;;
82417;SDS011;75985;53.734;10.260;2024-03-02T16:41:27;6.40;;;5.25;;
82417;SDS011;75985;53.734;10.260;2024-03-02T16:44:33;10.25;;;6.28;;
82417;SDS011;75985;53.734;10.260;2024-03-02T16:47:39;6.30;;;5.30;;
82417;SDS011;75985;53.734;10.260;2024-03-02T16:50:43;6.85;;;5.17;;
82417;SDS011;75985;53.734;10.260;2024-03-02T16:53:48;5.17;;;4.60;;
82417;SDS011;75985;53.734;10.260;2024-03-02T16:56:52;6.05;;;5.08;;
82417;SDS011;75985;53.734;10.260;2024-03-02T16:59:57;6.17;;;4.70;;
82417;SDS011;75985;53.734;10.260;2024-03-02T17:03:01;6.00;;;5.17;;
82417;SDS011;75985;53.734;10.260;2024-03-02T17:06:06;6.78;;;5.05;;
82417;SDS011;75985;53.734;10.260;2024-03-02T17:09:10;5.28;;;4.78;;
82417;SDS011;75985;53.734;10.260;2024-03-02T17:12:15;6.03;;;4.75;;
82417;SDS011;75985;53.734;10.260;2024-03-02T17:15:19;7.58;;;5.72;;
82417;SDS011;75985;53.734;10.260;2024-03-02T17:18:24;7.10;;;5.40;;
82417;SDS011;75985;53.734;10.260;2024-03-02T17:21:29;8.08;;;6.08;;
82417;SDS011;75985;53.734;10.260;2024-03-02T17:24:35;9.30;;;6.95;;
82417;SDS011;75985;53.734;10.260;2024-03-02T17:27:39;8.68;;;6.62;;
82417;SDS011;75985;53.734;10.260;2024-03-02T17:30:44;7.78;;;5.90;;
82417;SDS011;75985;53.734;10.260;2024-03-02T17:33:48;7.30;;;5.78;;
82417;SDS011;75985;53.734;10.260;2024-03-02T17:36:53;7.53;;;6.10;;
82417;SDS011;75985;53.734;10.260;2024-03-02T17:39:57;8.65;;;7.42;;
82417;SDS011;75985;53.734;10.260;2024-03-02T17:43:02;7.65;;;6.67;;
82417;SDS011;75985;53.734;10.260;2024-03-02T17:46:06;11.45;;;8.78;;
82417;SDS011;75985;53.734;10.260;2024-03-02T17:49:11;11.15;;;8.95;;
82417;SDS011;75985;53.734;10.260;2024-03-02T17:52:15;9.35;;;8.18;;
82417;SDS011;75985;53.734;10.260;2024-03-02T17:55:20;9.45;;;7.50;;
82417;SDS011;75985;53.734;10.260;2024-03-02T17:58:25;13.60;;;10.60;;